KGNB

Granby-Grand County Airport

Granby, Colorado, USA
METAR KGNB 200700Z AUTO 25016G22KT 10SM OVC100 M07/M15 A2946 RMK AO2 T10701146
Observed Flight Rules
Feb-20 @ 07:00 UTC (23 minutes ago) Visual Flight Rules
Wind Visibility Clouds
250° at 16 knots
 Gusting to 22 knots
10 miles
  • Overcast at 10,000' AGL
Temperatures Readings
Current -7°C / 19°F
Dewpoint -15°C / 5°F
Humidity 53%
Altimeter 29.46" Hg
Pressure 998 hPa
Elevation 2500
METAR KGNB 200700Z AUTO 25016G22KT 10SM OVC100 M07/M15 A2946 RMK AO2 T10701146
Observed Flight Rules
Feb-20 @ 07:00 UTC
(23 minutes ago)
VFR
Wind Visibility
250° at 16 knots
 Gusting to 22 knots
10 miles
Clouds
  • Overcast at 10,000' AGL
Temperature Dewpoint
-7°C / 19°F -15°C / 5°F
Humidity Altimeter Pressure
53% 29.46" Hg 998 hPa